Beverley, United Kingdom
Current Conditions -  °F | °C
As of 7:50 PM on Monday 22 Dec 2014 (Local Time) from EGXV Reporting Station
Rain Showers Rain Showers  
Wind Chill: 54°   Ceiling: 2700
Heat Index: 54°   Visibility: 6mi
Dew Point: 48°   Wind: 20mph
Humidity: 82%   Direction: 250°WSW
Pressure: 29.74"   Gusts: 32mph
Location:  53.85°N, 0.44°W
Report Text: EGXV 221950Z AUTO 25017G28KT 9999 -SHRA BKN027/// 12/09 Q1007
Loading
Personal Weather Stations






























Interactive Weather Map New forecast layout! Learn more

10-Day Weather Forecast

Advertisements
Track Severe Weather on mobile